createdAt,value
2018-10-02T00:02:58.267Z,98381.00
2018-10-02T00:07:00.632Z,98386.00
2018-10-02T00:11:08.808Z,98384.00
2018-10-02T00:15:11.126Z,98378.00
2018-10-02T00:19:13.415Z,98377.00
2018-10-02T00:23:15.688Z,98377.00
2018-10-02T00:27:18.072Z,98379.00
2018-10-02T00:31:20.608Z,98372.00
2018-10-02T00:35:22.838Z,98382.00
2018-10-02T00:39:25.127Z,98376.00
2018-10-02T00:43:27.414Z,98376.00
2018-10-02T00:47:29.743Z,98380.00
2018-10-02T00:51:32.059Z,98372.00
2018-10-02T00:55:34.334Z,98370.00
2018-10-02T00:59:36.654Z,98370.00
2018-10-02T01:03:39.032Z,98363.00
2018-10-02T01:07:41.291Z,98360.00
2018-10-02T01:11:43.584Z,98359.00
2018-10-02T01:15:45.906Z,98359.00
2018-10-02T01:19:48.249Z,98350.00
2018-10-02T01:23:50.568Z,98359.00
2018-10-02T01:27:52.875Z,98355.00
2018-10-02T01:31:55.682Z,98360.00
2018-10-02T01:35:58.549Z,98360.00
2018-10-02T01:40:00.895Z,98352.00
2018-10-02T01:44:03.217Z,98349.00
2018-10-02T01:48:05.563Z,98345.00
2018-10-02T01:52:07.875Z,98345.00
2018-10-02T01:56:10.168Z,98342.00
2018-10-02T02:00:12.542Z,98339.00
2018-10-02T02:04:14.812Z,98338.00
2018-10-02T02:08:17.053Z,98344.00
2018-10-02T02:12:19.393Z,98352.00
2018-10-02T02:16:21.672Z,98359.00
2018-10-02T02:20:23.934Z,98360.00
2018-10-02T02:24:26.208Z,98362.00
2018-10-02T02:28:28.527Z,98357.00
2018-10-02T02:32:31.027Z,98350.00
2018-10-02T02:36:42.887Z,98351.00
2018-10-02T02:40:45.163Z,98350.00
2018-10-02T02:44:47.468Z,98344.00
2018-10-02T02:48:55.282Z,98359.00
2018-10-02T02:53:03.553Z,98357.00
2018-10-02T02:57:05.696Z,98354.00
2018-10-02T03:01:08.036Z,98355.00
2018-10-02T03:05:10.321Z,98359.00
2018-10-02T03:09:12.609Z,98362.00
2018-10-02T03:13:14.897Z,98362.00
2018-10-02T03:17:17.178Z,98358.00
2018-10-02T03:21:19.462Z,98366.00
2018-10-02T03:25:21.764Z,98353.00
2018-10-02T03:29:24.084Z,98358.00
2018-10-02T03:33:26.333Z,98349.00
2018-10-02T03:37:28.609Z,98352.00
2018-10-02T03:41:30.879Z,98357.00
2018-10-02T03:45:33.144Z,98338.00
2018-10-02T03:49:35.420Z,98336.00
2018-10-02T03:53:37.746Z,98341.00
2018-10-02T03:57:40.031Z,98341.00
2018-10-02T04:01:42.363Z,98339.00
2018-10-02T04:05:44.718Z,98331.00
2018-10-02T04:09:46.993Z,98335.00
2018-10-02T04:13:49.317Z,98315.00
2018-10-02T04:17:51.602Z,98319.00
2018-10-02T04:21:53.878Z,98325.00
2018-10-02T04:25:56.102Z,98322.00
2018-10-02T04:29:58.324Z,98315.00
2018-10-02T04:34:00.607Z,98321.00
2018-10-02T04:38:02.993Z,98311.00
2018-10-02T04:42:05.526Z,98312.00
2018-10-02T04:46:08.014Z,98315.00
2018-10-02T04:50:10.338Z,98317.00
2018-10-02T04:54:12.588Z,98310.00
2018-10-02T04:58:14.882Z,98319.00
2018-10-02T05:02:17.216Z,98317.00
2018-10-02T05:06:19.456Z,98296.00
2018-10-02T05:10:21.757Z,98297.00
2018-10-02T05:14:24.188Z,98308.00
2018-10-02T05:18:26.466Z,98311.00
2018-10-02T05:22:28.783Z,98310.00
2018-10-02T05:26:31.042Z,98317.00
2018-10-02T05:30:33.371Z,98310.00
2018-10-02T05:34:35.670Z,98312.00
2018-10-02T05:38:37.956Z,98305.00
2018-10-02T05:42:40.275Z,98299.00
2018-10-02T05:46:42.553Z,98302.00
2018-10-02T05:50:44.984Z,98308.00
2018-10-02T05:54:47.273Z,98306.00
2018-10-02T05:58:49.707Z,98289.00
2018-10-02T06:02:52.080Z,98285.00
2018-10-02T06:06:54.387Z,98265.00
2018-10-02T06:10:56.667Z,98289.00
2018-10-02T06:14:58.952Z,98286.00
2018-10-02T06:19:01.451Z,98286.00
2018-10-02T06:23:03.702Z,98292.00
2018-10-02T06:27:06.106Z,98283.00
2018-10-02T06:31:08.513Z,98286.00
2018-10-02T06:35:10.790Z,98305.00
2018-10-02T06:39:13.124Z,98314.00
2018-10-02T06:43:15.376Z,98319.00
2018-10-02T06:47:17.637Z,98327.00
2018-10-02T06:51:20.173Z,98326.00
2018-10-02T06:55:23.800Z,98314.00
2018-10-02T06:59:26.125Z,98309.00
2018-10-02T07:03:28.547Z,98304.00
2018-10-02T07:07:30.907Z,98302.00
2018-10-02T07:11:33.280Z,98305.00
2018-10-02T07:15:35.552Z,98312.00
2018-10-02T07:19:37.886Z,98305.00
2018-10-02T07:23:40.205Z,98315.00
2018-10-02T07:27:43.441Z,98298.00
2018-10-02T07:31:45.675Z,98302.00
2018-10-02T07:35:47.986Z,98300.00
2018-10-02T07:39:50.347Z,98299.00
2018-10-02T07:43:52.622Z,98298.00
2018-10-02T07:47:54.928Z,98306.00
2018-10-02T07:51:57.207Z,98310.00
2018-10-02T07:55:59.574Z,98317.00
2018-10-02T08:00:01.948Z,98307.00
2018-10-02T08:04:04.228Z,98319.00
2018-10-02T08:08:06.822Z,98320.00
2018-10-02T08:12:09.316Z,98321.00
2018-10-02T08:16:11.620Z,98312.00
2018-10-02T08:20:13.932Z,98311.00
2018-10-02T08:24:16.267Z,98312.00
2018-10-02T08:28:20.081Z,98304.00
2018-10-02T08:32:22.407Z,98308.00
2018-10-02T08:36:24.748Z,98297.00
2018-10-02T08:40:27.086Z,98292.00
2018-10-02T08:44:29.490Z,98279.00
2018-10-02T08:48:31.791Z,98283.00
2018-10-02T08:52:34.123Z,98278.00
2018-10-02T08:56:36.525Z,98270.00
2018-10-02T09:00:38.963Z,98273.00
2018-10-02T09:04:41.347Z,98273.00
2018-10-02T09:08:43.665Z,98269.00
2018-10-02T09:12:46.124Z,98266.00
2018-10-02T09:16:48.397Z,98278.00
2018-10-02T09:20:50.770Z,98282.00
2018-10-02T09:24:53.047Z,98273.00
2018-10-02T09:28:55.383Z,98267.00
2018-10-02T09:33:03.293Z,98282.00
2018-10-02T09:37:11.418Z,98285.00
2018-10-02T09:41:19.163Z,98284.00
2018-10-02T09:45:21.500Z,98282.00
2018-10-02T09:49:23.812Z,98284.00
2018-10-02T09:53:26.105Z,98279.00
2018-10-02T09:57:28.444Z,98264.00
2018-10-02T10:01:36.371Z,98255.00
2018-10-02T10:05:38.653Z,98242.00
2018-10-02T10:09:40.937Z,98240.00
2018-10-02T10:13:43.217Z,98243.00
2018-10-02T10:17:45.669Z,98228.00
2018-10-02T10:21:47.984Z,98228.00
2018-10-02T10:25:50.281Z,98228.00
2018-10-02T10:29:52.555Z,98218.00
2018-10-02T10:33:54.900Z,98212.00
2018-10-02T10:37:57.239Z,98206.00
2018-10-02T10:41:59.551Z,98201.00
2018-10-02T10:46:01.874Z,98205.00
2018-10-02T10:50:04.195Z,98190.00
2018-10-02T10:54:06.629Z,98184.00
2018-10-02T10:58:08.959Z,98175.00
2018-10-02T11:02:12.074Z,98180.00
2018-10-02T11:06:14.373Z,98167.00
2018-10-02T11:10:17.899Z,98159.00
2018-10-02T11:14:20.243Z,98152.00
2018-10-02T11:18:22.564Z,98149.00
2018-10-02T11:22:26.847Z,98150.00
2018-10-02T11:26:29.809Z,98139.00
2018-10-02T11:30:32.179Z,98136.00
2018-10-02T11:34:35.080Z,98142.00
2018-10-02T11:38:37.401Z,98144.00
2018-10-02T11:42:39.734Z,98149.00
2018-10-02T11:46:42.105Z,98150.00
2018-10-02T11:50:44.540Z,98127.00
2018-10-02T11:54:47.270Z,98143.00
2018-10-02T11:58:49.649Z,98123.00
2018-10-02T12:02:51.984Z,98130.00
2018-10-02T12:06:54.432Z,98125.00
2018-10-02T12:10:56.684Z,98127.00
2018-10-02T12:14:59.319Z,98115.00
2018-10-02T12:19:01.644Z,98111.00
2018-10-02T12:23:03.959Z,98117.00
2018-10-02T12:27:06.363Z,98110.00
2018-10-02T12:31:08.975Z,98112.00
2018-10-02T12:35:11.428Z,98106.00
2018-10-02T12:39:13.713Z,98087.00
2018-10-02T12:47:42.095Z,98104.00
2018-10-02T12:51:44.453Z,98097.00
2018-10-02T12:55:46.743Z,98097.00
2018-10-02T12:59:49.118Z,98087.00
2018-10-02T13:03:52.458Z,98089.00
2018-10-02T13:07:54.736Z,98087.00
2018-10-02T13:11:57.149Z,98096.00
2018-10-02T13:15:59.444Z,98090.00
2018-10-02T13:20:01.977Z,98091.00
2018-10-02T13:24:04.262Z,98093.00
2018-10-02T13:28:06.672Z,98093.00
2018-10-02T13:32:09.057Z,98074.00
2018-10-02T13:36:11.452Z,98077.00
2018-10-02T13:40:13.803Z,98085.00
2018-10-02T13:44:16.290Z,98087.00
2018-10-02T13:48:18.719Z,98081.00
2018-10-02T13:52:21.533Z,98074.00
2018-10-02T13:56:24.927Z,98068.00
2018-10-02T14:00:27.678Z,98081.00
2018-10-02T14:04:30.018Z,98078.00
2018-10-02T14:08:32.417Z,98082.00
2018-10-02T14:12:34.756Z,98086.00
2018-10-02T14:16:37.018Z,98086.00
2018-10-02T14:20:39.596Z,98089.00
2018-10-02T14:24:41.918Z,98089.00
2018-10-02T14:28:44.312Z,98095.00
2018-10-02T14:32:46.677Z,98078.00
2018-10-02T14:36:48.962Z,98068.00
2018-10-02T14:40:51.357Z,98072.00
2018-10-02T14:44:53.728Z,98065.00
2018-10-02T14:48:56.052Z,98085.00
2018-10-02T14:52:58.438Z,98078.00
2018-10-02T14:57:00.768Z,98091.00
2018-10-02T15:01:03.134Z,98089.00
2018-10-02T15:05:05.460Z,98097.00
2018-10-02T15:09:08.399Z,98090.00
2018-10-02T15:13:10.806Z,98089.00
2018-10-02T15:17:13.191Z,98081.00
2018-10-02T15:21:15.611Z,98088.00
2018-10-02T15:25:17.950Z,98081.00
2018-10-02T15:29:20.358Z,98072.00
2018-10-02T15:33:22.663Z,98068.00
2018-10-02T15:37:25.067Z,98053.00
2018-10-02T15:41:27.371Z,98048.00
2018-10-02T15:45:29.672Z,98051.00
2018-10-02T15:49:32.072Z,98069.00
2018-10-02T15:53:34.453Z,98048.00
2018-10-02T15:57:36.832Z,98046.00
2018-10-02T16:01:39.228Z,98055.00
2018-10-02T16:05:41.692Z,98036.00
2018-10-02T16:09:44.057Z,98040.00
2018-10-02T16:13:46.439Z,98031.00
2018-10-02T16:17:48.857Z,98038.00
2018-10-02T16:21:51.329Z,98022.00
2018-10-02T16:25:53.662Z,98026.00
2018-10-02T16:29:56.003Z,98048.00
2018-10-02T16:33:58.306Z,98049.00
2018-10-02T16:38:00.631Z,98052.00
2018-10-02T16:42:03.057Z,98054.00
2018-10-02T16:46:05.341Z,98060.00
2018-10-02T16:50:07.650Z,98059.00
2018-10-02T16:54:09.998Z,98075.00
2018-10-02T16:58:12.329Z,98082.00
2018-10-02T17:02:14.640Z,98093.00
2018-10-02T17:06:17.011Z,98104.00
2018-10-02T17:10:19.327Z,98106.00
2018-10-02T17:14:21.813Z,98090.00
2018-10-02T17:18:24.164Z,98108.00
2018-10-02T17:22:26.499Z,98106.00
2018-10-02T17:26:28.926Z,98112.00
2018-10-02T17:30:31.270Z,98111.00
2018-10-02T17:34:33.636Z,98117.00
2018-10-02T17:38:36.025Z,98117.00
2018-10-02T17:42:38.419Z,98106.00
2018-10-02T17:46:40.746Z,98126.00
2018-10-02T17:50:43.157Z,98128.00
2018-10-02T17:59:05.756Z,98129.00
2018-10-02T18:03:08.108Z,98128.00
2018-10-02T18:07:10.467Z,98147.00
2018-10-02T18:11:12.825Z,98151.00
2018-10-02T18:15:15.162Z,98168.00
2018-10-02T18:19:17.469Z,98157.00
2018-10-02T18:23:19.802Z,98165.00
2018-10-02T18:27:22.251Z,98176.00
2018-10-02T18:31:24.559Z,98191.00
2018-10-02T18:35:27.081Z,98187.00
2018-10-02T18:39:29.561Z,98179.00
2018-10-02T18:43:31.890Z,98196.00
2018-10-02T18:47:34.220Z,98179.00
2018-10-02T18:51:36.604Z,98175.00
2018-10-02T18:55:39.029Z,98179.00
2018-10-02T18:59:41.687Z,98179.00
2018-10-02T19:03:44.094Z,98177.00
2018-10-02T19:07:46.494Z,98183.00
2018-10-02T19:11:55.570Z,98178.00
2018-10-02T19:16:04.085Z,98190.00
2018-10-02T19:20:17.830Z,98200.00
2018-10-02T19:24:22.092Z,98188.00
2018-10-02T19:28:24.725Z,98189.00
2018-10-02T19:32:27.125Z,98192.00
2018-10-02T19:36:29.575Z,98200.00
2018-10-02T19:40:33.851Z,98196.00
2018-10-02T19:44:36.887Z,98195.00
2018-10-02T19:48:39.317Z,98192.00
2018-10-02T19:52:41.730Z,98191.00
2018-10-02T19:56:44.128Z,98189.00
2018-10-02T20:00:47.780Z,98185.00
2018-10-02T20:04:50.099Z,98179.00
2018-10-02T20:08:53.460Z,98178.00
2018-10-02T20:12:55.891Z,98160.00
2018-10-02T20:17:01.463Z,98174.00
2018-10-02T20:21:03.750Z,98177.00
2018-10-02T20:25:06.122Z,98178.00
2018-10-02T20:29:09.152Z,98194.00
2018-10-02T20:33:12.409Z,98200.00
2018-10-02T20:37:14.875Z,98198.00
2018-10-02T20:41:17.223Z,98197.00
2018-10-02T20:45:19.566Z,98187.00
2018-10-02T20:49:22.004Z,98210.00
2018-10-02T20:53:24.297Z,98198.00
2018-10-02T20:57:26.625Z,98206.00
2018-10-02T21:01:28.974Z,98190.00
2018-10-02T21:05:31.248Z,98192.00
2018-10-02T21:09:33.611Z,98193.00
2018-10-02T21:13:36.140Z,98191.00
2018-10-02T21:17:38.535Z,98192.00
2018-10-02T21:21:40.889Z,98189.00
2018-10-02T21:25:43.170Z,98177.00
2018-10-02T21:29:45.529Z,98179.00
2018-10-02T21:33:47.839Z,98171.00
2018-10-02T21:37:50.170Z,98175.00
2018-10-02T21:41:52.530Z,98171.00
2018-10-02T21:45:54.871Z,98174.00
2018-10-02T21:49:57.230Z,98182.00
2018-10-02T21:53:59.549Z,98198.00
2018-10-02T21:58:01.853Z,98201.00
2018-10-02T22:02:04.243Z,98197.00
2018-10-02T22:06:06.853Z,98182.00
2018-10-02T22:10:09.206Z,98167.00
2018-10-02T22:14:11.559Z,98182.00
2018-10-02T22:18:13.870Z,98171.00
2018-10-02T22:22:16.845Z,98171.00
2018-10-02T22:26:19.189Z,98164.00
2018-10-02T22:30:21.524Z,98168.00
2018-10-02T22:34:23.864Z,98166.00
2018-10-02T22:38:26.148Z,98172.00
2018-10-02T22:42:28.484Z,98173.00
2018-10-02T22:46:30.928Z,98173.00
2018-10-02T22:50:33.283Z,98173.00
2018-10-02T22:54:35.670Z,98175.00
2018-10-02T22:58:38.004Z,98169.00
2018-10-02T23:02:40.268Z,98165.00
2018-10-02T23:06:42.639Z,98174.00
2018-10-02T23:10:44.914Z,98184.00
2018-10-02T23:14:47.244Z,98187.00
2018-10-02T23:18:49.598Z,98179.00
2018-10-02T23:22:51.952Z,98173.00
2018-10-02T23:26:54.223Z,98175.00
2018-10-02T23:30:56.681Z,98178.00
2018-10-02T23:34:59.000Z,98188.00
2018-10-02T23:39:01.674Z,98179.00
2018-10-02T23:43:03.953Z,98186.00
2018-10-02T23:47:06.199Z,98183.00
2018-10-02T23:51:08.503Z,98176.00
2018-10-02T23:55:10.834Z,98171.00
2018-10-02T23:59:13.139Z,98172.00
